Time;durP1;ratioP1;P1;durP2;ratioP2;P2;SDS_P1;SDS_P2;PMS_P1;PMS_P2;Temp;Humidity;BMP_temperature;BMP_pressure;BME280_temperature;BME280_humidity;BME280_pressure;Samples;Min_cycle;Max_cycle;Signal;HPM_P1;HPM_P2
2022/12/09 00:00:25;;;;;;;11.57;10.40;;;;;;;0.70;92.39;99875.56;5040001;28;20197;-77
2022/12/09 00:02:51;;;;;;;12.73;11.00;;;;;;;0.75;92.51;99876.47;5040382;28;20665;-77
2022/12/09 00:05:18;;;;;;;14.17;10.77;;;;;;;0.73;91.40;99880.75;5051157;28;20582;-77
2022/12/09 00:07:45;;;;;;;11.00;9.73;;;;;;;0.73;92.64;99875.59;5051084;28;20236;-77
2022/12/09 00:10:12;;;;;;;10.60;9.50;;;;;;;0.73;92.20;99873.03;5052502;28;20698;-77
2022/12/09 00:12:38;;;;;;;12.13;10.80;;;;;;;0.76;92.59;99855.06;5052752;28;20209;-77
2022/12/09 00:15:06;;;;;;;12.17;10.43;;;;;;;0.75;91.93;99862.75;5052461;28;20224;-77
2022/12/09 00:17:32;;;;;;;11.63;10.47;;;;;;;0.77;91.92;99871.34;5053619;28;20225;-77
2022/12/09 00:19:59;;;;;;;11.17;9.97;;;;;;;0.63;92.05;99871.19;5052851;28;20671;-77
2022/12/09 00:22:26;;;;;;;11.47;9.93;;;;;;;0.66;92.11;99878.06;5053386;28;20209;-77
2022/12/09 00:24:54;;;;;;;11.20;10.10;;;;;;;0.70;90.84;99890.97;5053159;28;20205;-77
2022/12/09 00:27:20;;;;;;;13.37;11.20;;;;;;;0.73;92.01;99892.69;5053161;28;20710;-77
2022/12/09 00:29:47;;;;;;;12.10;10.47;;;;;;;0.79;nan;99887.63;5052973;28;20244;-77
2022/12/09 00:32:13;;;;;;;12.17;10.60;;;;;;;0.85;92.17;99880.00;5053148;28;20231;-77
2022/12/09 00:34:41;;;;;;;12.57;9.33;;;;;;;0.82;91.57;99873.97;5052608;28;20201;-77
2022/12/09 00:37:07;;;;;;;10.43;9.13;;;;;;;0.84;91.93;99883.41;5053037;28;20232;-76
2022/12/09 00:39:34;;;;;;;10.90;9.87;;;;;;;0.83;92.33;99876.53;5052700;28;20205;-77
2022/12/09 00:42:01;;;;;;;11.90;9.57;;;;;;;0.86;92.42;99878.31;5052869;28;20232;-77
2022/12/09 00:44:28;;;;;;;12.43;9.40;;;;;;;0.93;92.93;99869.81;5052744;28;20216;-77
2022/12/09 00:46:54;;;;;;;10.17;9.17;;;;;;;0.87;92.27;99869.75;5052587;28;20233;-77
2022/12/09 00:49:21;;;;;;;11.20;9.33;;;;;;;0.85;92.70;99861.16;5052103;28;20221;-77
2022/12/09 00:51:47;;;;;;;10.53;8.30;;;;;;;0.83;93.37;99858.56;5052498;28;20232;-77
2022/12/09 00:54:14;;;;;;;11.20;10.10;;;;;;;0.83;93.42;99852.56;5034325;28;20209;-76
2022/12/09 00:56:40;;;;;;;10.67;8.87;;;;;;;0.88;93.14;99844.06;5032420;28;20256;-77
2022/12/09 00:59:08;;;;;;;13.03;9.23;;;;;;;0.90;93.11;99839.81;5032633;28;20210;-77
2022/12/09 01:01:35;;;;;;;11.23;8.93;;;;;;;0.87;93.18;99836.34;5031942;28;20210;-77
2022/12/09 01:04:01;;;;;;;10.73;9.63;;;;;;;0.78;94.13;99831.97;5032203;28;20206;-77
2022/12/09 01:06:28;;;;;;;12.07;9.83;;;;;;;0.88;94.27;99822.66;5032261;28;20205;-77
2022/12/09 01:08:54;;;;;;;12.07;9.60;;;;;;;0.92;93.24;99827.84;5032288;28;20246;-77
2022/12/09 01:11:23;;;;;;;12.67;9.20;;;;;;;0.95;93.39;99834.72;5032063;28;20206;-77
2022/12/09 01:13:50;;;;;;;10.80;8.73;;;;;;;0.92;92.77;99856.09;5032181;28;20246;-76
2022/12/09 01:16:20;;;;;;;10.50;9.13;;;;;;;0.87;93.34;99859.47;5031469;28;20671;-76
2022/12/09 01:18:47;;;;;;;11.87;9.20;;;;;;;0.78;92.43;99861.09;5032241;28;20234;-77
2022/12/09 01:21:13;;;;;;;10.43;8.63;;;;;;;0.78;92.55;99858.53;5031729;28;20202;-76
2022/12/09 01:23:40;;;;;;;10.40;8.93;;;;;;;0.84;92.56;99847.44;5032200;28;20209;-76
2022/12/09 01:26:07;;;;;;;10.17;8.73;;;;;;;0.86;92.98;99857.75;5031891;28;20202;-77
2022/12/09 01:28:35;;;;;;;10.00;7.97;;;;;;;0.88;93.09;99856.91;5032133;28;20221;-76
2022/12/09 01:31:05;;;;;;;10.93;8.50;;;;;;;0.90;92.65;99873.22;5031385;28;20234;-76
2022/12/09 01:33:33;;;;;;;10.17;9.00;;;;;;;0.83;91.97;99880.81;5032235;28;20209;-76
2022/12/09 01:36:00;;;;;;;8.70;7.77;;;;;;;0.80;92.36;99899.66;5032073;28;20205;-76
2022/12/09 01:38:26;;;;;;;10.13;9.13;;;;;;;0.81;92.04;99892.78;5031624;28;20227;-76
2022/12/09 01:40:53;;;;;;;9.60;8.60;;;;;;;0.75;91.49;99899.59;5031634;28;20648;-76
2022/12/09 01:43:20;;;;;;;9.77;8.77;;;;;;;0.71;91.22;99918.34;5031678;28;20213;-76
2022/12/09 01:45:48;;;;;;;10.93;9.70;;;;;;;0.65;91.65;99925.13;5031933;28;20233;-76
2022/12/09 01:48:16;;;;;;;11.30;8.30;;;;;;;0.56;91.80;99916.47;5031541;28;20221;-76
2022/12/09 01:50:48;;;;;;;9.53;8.53;;;;;;;0.58;91.50;99919.06;5031387;28;20226;-76
2022/12/09 01:53:16;;;;;;;11.87;9.00;;;;;;;0.63;91.50;99907.13;5031481;28;20210;-76
2022/12/09 01:55:43;;;;;;;10.47;7.83;;;;;;;0.62;91.04;99909.69;5031569;28;20206;-76
2022/12/09 01:58:10;;;;;;;9.97;7.60;;;;;;;0.53;91.83;99893.31;5031595;28;20225;-76
2022/12/09 02:00:37;;;;;;;8.57;7.63;;;;;;;0.61;90.56;99901.13;5031505;28;20202;-76
2022/12/09 02:03:05;;;;;;;10.03;7.60;;;;;;;0.48;89.70;99932.63;5031586;28;20217;-76
2022/12/09 02:05:32;;;;;;;8.17;7.33;;;;;;;0.45;88.86;99964.25;5031690;28;20210;-76
2022/12/09 02:08:00;;;;;;;8.77;7.87;;;;;;;0.38;89.01;99960.72;5031130;28;20226;-76
2022/12/09 02:10:27;;;;;;;9.80;8.33;;;;;;;0.31;89.82;99969.16;5031259;28;20706;-76
2022/12/09 02:13:04;;;;;;;8.20;7.40;;;;;;;0.24;89.22;99962.25;5031442;28;20230;-76
2022/12/09 02:15:35;;;;;;;9.77;8.07;;;;;;;0.22;89.63;99945.97;5031482;28;20209;-76
2022/12/09 02:18:10;;;;;;;10.03;8.00;;;;;;;0.17;90.48;99935.59;5031035;28;20226;-76
2022/12/09 02:20:41;;;;;;;8.90;8.00;;;;;;;0.21;90.25;99927.97;5031211;28;20581;-76
2022/12/09 02:23:15;;;;;;;10.83;7.87;;;;;;;0.23;91.05;99914.31;5031468;28;20245;-76
2022/12/09 02:25:46;;;;;;;8.60;7.70;;;;;;;0.24;90.57;99905.78;5031514;28;20211;-76
2022/12/09 02:28:38;;;;;;;9.00;8.10;;;;;;;0.27;90.71;99892.13;5031436;28;20232;-76
2022/12/09 02:31:21;;;;;;;9.50;7.50;;;;;;;0.24;91.76;99882.69;5033711;28;20612;-76
2022/12/09 02:34:06;;;;;;;8.50;7.63;;;;;;;0.25;91.06;99873.25;5035087;28;20582;-76
2022/12/09 02:36:40;;;;;;;9.80;7.60;;;;;;;0.24;91.93;99863.81;5035000;28;20695;-76
2022/12/09 02:39:09;;;;;;;8.80;6.97;;;;;;;0.27;91.76;99858.75;5035086;28;20185;-76
2022/12/09 02:41:39;;;;;;;10.63;7.87;;;;;;;0.20;92.47;99852.69;5034967;28;20210;-76
2022/12/09 02:44:10;;;;;;;8.90;7.07;;;;;;;0.24;91.88;99854.44;5034820;28;20213;-76
2022/12/09 02:46:38;;;;;;;9.70;7.60;;;;;;;0.17;91.17;99870.59;5034922;28;20226;-76
2022/12/09 02:49:06;;;;;;;7.83;6.97;;;;;;;0.14;90.40;99884.25;5034958;28;20213;-76
2022/12/09 02:51:35;;;;;;;8.77;7.83;;;;;;;0.11;90.49;99896.16;5034250;28;20714;-76
2022/12/09 02:54:07;;;;;;;10.03;7.53;;;;;;;0.04;90.08;99895.22;5034968;28;20202;-76
2022/12/09 02:56:34;;;;;;;8.40;7.60;;;;;;;0.08;90.71;99890.97;5034833;28;20206;-76
2022/12/09 02:59:01;;;;;;;7.80;7.10;;;;;;;0.10;91.22;99881.59;5034772;28;20217;-76
2022/12/09 03:01:36;;;;;;;9.80;7.73;;;;;;;0.13;91.28;99869.69;5034313;28;20214;-76
2022/12/09 03:04:04;;;;;;;8.17;6.73;;;;;;;0.12;91.22;99870.53;5034624;28;20209;-76
2022/12/09 03:06:38;;;;;;;10.17;6.70;;;;;;;0.15;90.80;99867.13;5034195;28;20614;-76
2022/12/09 03:09:09;;;;;;;8.07;6.93;;;;;;;0.09;91.06;99875.59;5034738;28;20202;-76
2022/12/09 03:11:37;;;;;;;9.40;7.33;;;;;;;0.07;91.34;99866.16;5034121;28;20258;-76
2022/12/09 03:14:10;;;;;;;8.23;7.43;;;;;;;0.10;89.99;99879.03;5034417;28;20220;-76
2022/12/09 03:16:41;;;;;;;7.53;6.83;;;;;;;0.00;89.12;99906.28;5060026;22;20233;-78
2022/12/09 03:19:14;;;;;;;8.43;6.80;;;;;;;-0.06;88.42;99926.69;5055411;28;20206;-77
2022/12/09 03:21:46;;;;;;;7.87;7.07;;;;;;;-0.08;89.19;99931.81;5054404;28;20210;-79
2022/12/09 03:24:18;;;;;;;8.37;7.33;;;;;;;-0.01;89.88;99917.38;5054858;28;20300;-78
2022/12/09 03:26:45;;;;;;;10.90;7.87;;;;;;;0.06;89.98;99905.47;5054985;28;20221;-78
2022/12/09 03:29:17;;;;;;;7.67;6.97;;;;;;;0.09;90.36;99887.59;5055444;28;20205;-78
2022/12/09 03:31:45;;;;;;;8.40;6.97;;;;;;;0.06;90.66;99884.97;5054282;28;20229;-79
2022/12/09 03:34:16;;;;;;;8.23;7.33;;;;;;;-0.01;91.34;99866.91;5054925;28;20582;-78
2022/12/09 03:36:47;;;;;;;9.30;7.33;;;;;;;0.04;91.16;99859.31;5054653;28;20623;-79
2022/12/09 03:39:16;;;;;;;10.87;8.03;;;;;;;-0.01;90.35;99869.47;5055198;28;20213;-78
2022/12/09 03:41:45;;;;;;;10.53;8.30;;;;;;;-0.15;89.16;99893.22;5054060;28;20208;-77
2022/12/09 03:44:17;;;;;;;9.93;8.20;;;;;;;-0.15;88.77;99911.16;5054684;28;20206;-78
2022/12/09 03:46:44;;;;;;;9.63;8.40;;;;;;;-0.07;88.40;99923.25;5054326;28;20234;-78
2022/12/09 03:49:11;;;;;;;14.67;9.23;;;;;;;-0.13;89.13;99938.56;5054825;28;20206;-78
2022/12/09 03:51:42;;;;;;;11.47;9.93;;;;;;;-0.17;90.05;99912.84;5054215;28;20229;-78
2022/12/09 03:54:16;;;;;;;12.07;9.77;;;;;;;-0.16;90.25;99896.59;5054635;28;20228;-78
2022/12/09 03:56:47;;;;;;;23.33;11.13;;;;;;;-0.39;91.35;99870.63;5054726;28;20226;-77
2022/12/09 03:59:14;;;;;;;18.17;10.80;;;;;;;-0.32;90.94;99842.50;5054432;28;20205;-78
2022/12/09 04:01:43;;;;;;;14.77;10.43;;;;;;;-0.28;89.85;99858.81;5054131;28;20213;-78
2022/12/09 04:04:10;;;;;;;17.90;10.37;;;;;;;-0.33;89.32;99876.69;5054414;28;20203;-79
2022/12/09 04:06:37;;;;;;;13.97;9.50;;;;;;;-0.34;89.99;99872.38;5054582;28;20283;-77
2022/12/09 04:09:05;;;;;;;11.70;8.63;;;;;;;-0.34;90.55;99861.28;5053942;28;20703;-79
2022/12/09 04:11:33;;;;;;;9.83;7.53;;;;;;;-0.30;90.79;99851.06;5053828;28;20236;-78
2022/12/09 04:14:00;;;;;;;11.73;7.97;;;;;;;-0.27;90.76;99842.59;5054622;28;20209;-79
2022/12/09 04:16:27;;;;;;;12.40;7.60;;;;;;;-0.24;91.51;99828.13;5054500;28;20280;-79
2022/12/09 04:18:53;;;;;;;9.83;7.83;;;;;;;-0.26;90.88;99827.25;5054365;28;20212;-78
2022/12/09 04:21:20;;;;;;;8.97;7.67;;;;;;;-0.31;91.34;99820.31;5054039;28;20209;-78
2022/12/09 04:23:46;;;;;;;7.97;7.20;;;;;;;-0.34;90.42;99825.38;5054036;28;20208;-78
2022/12/09 04:26:14;;;;;;;8.67;7.50;;;;;;;-0.38;89.75;99839.84;5053292;28;20229;-78
2022/12/09 04:28:42;;;;;;;9.17;6.80;;;;;;;-0.36;88.88;99862.94;5054092;28;20205;-78
2022/12/09 04:31:10;;;;;;;9.50;8.27;;;;;;;-0.36;88.14;99881.75;5053298;28;20271;-78
2022/12/09 04:33:37;;;;;;;8.77;7.87;;;;;;;-0.40;87.67;99903.06;5053512;28;20708;-78
2022/12/09 04:36:05;;;;;;;9.43;8.00;;;;;;;-0.44;88.54;99897.03;5053706;28;20221;-78
2022/12/09 04:38:31;;;;;;;9.00;7.67;;;;;;;-0.41;88.78;99894.50;5053959;28;20209;-78
2022/12/09 04:40:59;;;;;;;9.37;8.37;;;;;;;-0.39;89.04;99902.25;5053214;28;20668;-78
2022/12/09 04:43:25;;;;;;;9.33;8.43;;;;;;;-0.38;89.35;99886.00;5054044;28;20274;-78
2022/12/09 04:45:53;;;;;;;10.10;8.97;;;;;;;-0.30;89.91;99870.75;5053529;28;20735;-78
2022/12/09 04:48:20;;;;;;;11.70;8.60;;;;;;;-0.29;90.35;99862.22;5053822;28;20205;-78
2022/12/09 04:50:46;;;;;;;10.20;9.07;;;;;;;-0.26;92.17;99819.53;5052900;28;20740;-78
2022/12/09 04:53:12;;;;;;;9.60;8.60;;;;;;;-0.25;92.24;99781.94;5053246;28;20209;-78
2022/12/09 04:55:39;;;;;;;11.60;9.60;;;;;;;-0.23;92.53;99773.41;5053367;28;20233;-78
2022/12/09 04:58:05;;;;;;;9.53;8.63;;;;;;;-0.19;92.77;99774.31;5053504;28;20209;-78
2022/12/09 05:00:32;;;;;;;11.83;9.47;;;;;;;-0.19;92.66;99774.31;5053123;28;20198;-78
2022/12/09 05:02:59;;;;;;;11.13;9.33;;;;;;;-0.16;91.78;99788.88;5053569;28;20209;-79
2022/12/09 05:05:26;;;;;;;20.10;10.10;;;;;;;-0.22;91.28;99793.09;5053008;28;20232;-78
2022/12/09 05:07:52;;;;;;;10.53;8.73;;;;;;;-0.22;91.11;99794.78;5053808;28;20228;-79
2022/12/09 05:10:19;;;;;;;10.80;9.07;;;;;;;-0.20;91.35;99803.34;5052816;28;20202;-79
2022/12/09 05:12:45;;;;;;;10.80;9.43;;;;;;;-0.24;91.35;99805.03;5053090;28;20248;-78
2022/12/09 05:15:12;;;;;;;10.00;9.00;;;;;;;-0.17;90.58;99817.94;5053427;28;20213;-79
2022/12/09 05:17:38;;;;;;;10.40;8.97;;;;;;;-0.19;90.71;99823.06;5052944;28;20213;-78
2022/12/09 05:20:07;;;;;;;11.70;9.73;;;;;;;-0.22;89.64;99836.69;5053470;28;20201;-78
2022/12/09 05:22:34;;;;;;;12.77;11.33;;;;;;;-0.26;90.44;99839.16;5053149;28;20201;-79
2022/12/09 05:25:00;;;;;;;14.83;11.80;;;;;;;-0.25;90.92;99817.84;5053375;28;20210;-78
2022/12/09 05:27:27;;;;;;;14.23;12.77;;;;;;;-0.24;91.36;99810.16;5052729;28;20237;-78
2022/12/09 05:29:53;;;;;;;15.37;11.47;;;;;;;-0.27;91.67;99809.25;5056150;28;20219;-81
2022/12/09 05:32:20;;;;;;;18.17;13.13;;;;;;;-0.34;91.61;99800.59;5052715;28;20225;-79
2022/12/09 05:34:46;;;;;;;14.03;11.10;;;;;;;-0.33;91.26;99801.47;5053237;28;20296;-79
2022/12/09 05:37:15;;;;;;;12.67;11.37;;;;;;;-0.38;91.44;99803.94;5052908;28;20228;-79
2022/12/09 05:39:42;;;;;;;13.87;11.83;;;;;;;-0.40;91.24;99813.31;5053282;28;20201;-78
2022/12/09 05:42:08;;;;;;;14.43;11.43;;;;;;;-0.49;91.14;99819.19;5052656;28;20205;-78
2022/12/09 05:44:34;;;;;;;12.63;11.30;;;;;;;-0.45;91.25;99813.25;5053571;28;20205;-79
2022/12/09 05:47:01;;;;;;;13.73;10.27;;;;;;;-0.39;90.44;99809.94;5054102;28;20236;-78
2022/12/09 05:49:28;;;;;;;10.73;9.47;;;;;;;-0.39;90.78;99816.78;5054251;28;20218;-78
2022/12/09 05:51:54;;;;;;;10.67;9.53;;;;;;;-0.42;91.77;99808.19;5053832;28;20221;-78
2022/12/09 05:54:22;;;;;;;12.10;10.37;;;;;;;-0.39;90.79;99809.94;5058319;28;20731;-78
2022/12/09 05:56:48;;;;;;;11.33;10.10;;;;;;;-0.36;91.26;99803.97;5056675;28;20237;-78
2022/12/09 05:59:15;;;;;;;13.17;10.10;;;;;;;-0.37;91.15;99792.88;5058743;28;20213;-78
2022/12/09 06:01:41;;;;;;;11.53;9.93;;;;;;;-0.38;90.61;99814.22;5060686;28;20224;-79
2022/12/09 06:04:08;;;;;;;11.70;10.27;;;;;;;-0.37;90.22;99821.06;5061367;28;20203;-77
2022/12/09 06:06:34;;;;;;;12.13;10.50;;;;;;;-0.39;89.34;99843.25;5061038;28;20218;-78
2022/12/09 06:09:01;;;;;;;11.67;10.23;;;;;;;-0.50;89.07;99858.47;5054273;28;20204;-78
2022/12/09 06:11:30;;;;;;;11.20;10.03;;;;;;;-0.60;89.63;99870.25;5057708;28;20216;-79
2022/12/09 06:13:57;;;;;;;11.03;9.80;;;;;;;-0.64;89.58;99852.25;5057250;28;20204;-78
2022/12/09 06:16:23;;;;;;;11.73;9.67;;;;;;;-0.61;89.88;99863.41;5056582;28;20236;-78
2022/12/09 06:18:50;;;;;;;10.93;8.93;;;;;;;-0.57;90.32;99858.34;5056778;28;20216;-78
2022/12/09 06:21:18;;;;;;;14.03;9.30;;;;;;;-0.51;90.70;99845.63;5056822;28;20205;-79
2022/12/09 06:23:45;;;;;;;12.07;10.13;;;;;;;-0.49;91.83;99819.19;5056978;28;20216;-78
2022/12/09 06:26:16;;;;;;;10.63;9.53;;;;;;;-0.40;91.67;99795.38;5055561;28;20230;-78
2022/12/09 06:28:44;;;;;;;10.73;9.57;;;;;;;-0.44;92.74;99773.97;5056926;28;20213;-79
2022/12/09 06:31:11;;;;;;;11.03;9.70;;;;;;;-0.41;92.83;99750.94;5055914;28;20253;-79
2022/12/09 06:33:37;;;;;;;11.97;10.70;;;;;;;-0.35;92.68;99746.75;5056873;28;20214;-78
2022/12/09 06:36:04;;;;;;;13.30;11.27;;;;;;;-0.34;92.48;99751.88;5056209;28;20735;-78
2022/12/09 06:38:31;;;;;;;13.13;10.27;;;;;;;-0.30;92.34;99763.03;5056107;28;20209;-78
2022/12/09 06:40:57;;;;;;;14.40;10.30;;;;;;;-0.23;91.79;99759.72;5056360;28;20213;-78
2022/12/09 06:43:24;;;;;;;12.03;10.07;;;;;;;-0.25;92.49;99757.13;5055933;28;20194;-79
2022/12/09 06:45:52;;;;;;;13.37;10.80;;;;;;;-0.19;91.96;99758.06;5053770;28;20252;-78
2022/12/09 06:48:18;;;;;;;10.87;9.77;;;;;;;-0.12;91.92;99762.44;5055695;28;20213;-78
2022/12/09 06:50:45;;;;;;;12.70;10.90;;;;;;;-0.12;91.04;99786.41;5056028;28;20212;-78
2022/12/09 06:53:11;;;;;;;13.40;11.47;;;;;;;-0.23;90.22;99804.19;5056428;28;20217;-77
2022/12/09 06:55:37;;;;;;;13.80;11.20;;;;;;;-0.22;90.62;99812.72;5055494;28;20225;-77
2022/12/09 06:58:04;;;;;;;14.50;11.60;;;;;;;-0.19;90.88;99810.22;5055534;28;20198;-78
2022/12/09 07:00:31;;;;;;;12.30;11.00;;;;;;;-0.25;91.47;99797.31;5054705;28;20201;-78
2022/12/09 07:02:59;;;;;;;14.03;11.57;;;;;;;-0.30;91.32;99788.69;5044473;28;20675;-79
2022/12/09 07:05:35;;;;;;;14.10;12.70;;;;;;;-0.23;91.84;99780.25;5045739;28;20660;-78
2022/12/09 07:08:01;;;;;;;17.13;13.33;;;;;;;-0.19;92.24;99776.03;5053804;28;20202;-80
2022/12/09 07:10:28;;;;;;;17.33;13.07;;;;;;;-0.20;92.04;99764.88;5055810;28;20702;-79
2022/12/09 07:12:54;;;;;;;15.23;12.93;;;;;;;-0.23;92.15;99764.88;5055818;28;20726;-79
2022/12/09 07:15:20;;;;;;;13.77;12.37;;;;;;;-0.17;92.51;99758.97;5055004;28;20205;-79
2022/12/09 07:17:47;;;;;;;14.33;11.47;;;;;;;-0.15;93.45;99742.75;5056051;28;20220;-78
2022/12/09 07:20:16;;;;;;;12.53;11.33;;;;;;;-0.12;92.78;99745.34;5055485;28;20216;-78
2022/12/09 07:22:42;;;;;;;12.40;10.30;;;;;;;-0.15;93.35;99732.47;5056410;28;20587;-79
2022/12/09 07:25:09;;;;;;;13.20;11.73;;;;;;;-0.05;93.85;99721.50;5055853;28;20221;-80
2022/12/09 07:27:36;;;;;;;11.97;10.73;;;;;;;0.05;94.50;99714.75;5056652;28;20244;-79
2022/12/09 07:30:03;;;;;;;13.33;11.43;;;;;;;0.14;94.27;99709.75;5055386;28;20209;-79
2022/12/09 07:32:30;;;;;;;13.33;11.93;;;;;;;0.26;94.65;99705.56;5055334;28;20229;-79
2022/12/09 07:34:56;;;;;;;13.53;12.13;;;;;;;0.27;94.44;99691.91;5055721;28;20205;-78
2022/12/09 07:37:24;;;;;;;14.20;11.80;;;;;;;0.28;95.31;99673.09;5055244;28;20606;-78
2022/12/09 07:39:50;;;;;;;14.27;12.00;;;;;;;0.28;95.52;99667.97;5055583;28;20209;-76
2022/12/09 07:42:17;;;;;;;11.80;10.50;;;;;;;0.36;94.48;99679.19;5054741;28;20205;-77
2022/12/09 07:44:43;;;;;;;16.57;11.50;;;;;;;0.39;94.37;99695.47;5054873;28;20210;-78
2022/12/09 07:47:10;;;;;;;15.00;10.73;;;;;;;0.42;94.48;99697.22;5055054;28;20229;-78
2022/12/09 07:49:36;;;;;;;18.60;12.93;;;;;;;0.44;94.06;99712.59;5055141;28;20207;-78
2022/12/09 07:52:03;;;;;;;16.30;12.03;;;;;;;0.47;93.56;99735.75;5054027;28;20221;-77
2022/12/09 07:54:30;;;;;;;14.07;12.57;;;;;;;0.47;93.06;99749.44;5054177;28;20269;-77
2022/12/09 07:56:57;;;;;;;17.33;13.10;;;;;;;0.42;92.88;99766.53;5054090;28;20237;-77
2022/12/09 07:59:23;;;;;;;18.83;13.53;;;;;;;0.42;92.55;99763.06;5054456;28;20210;-78
2022/12/09 08:01:50;;;;;;;14.70;12.87;;;;;;;0.44;93.38;99762.28;5053482;28;20285;-78
2022/12/09 08:04:16;;;;;;;14.50;12.20;;;;;;;0.48;93.15;99764.03;5055892;28;20217;-78
2022/12/09 08:06:43;;;;;;;15.23;12.60;;;;;;;0.53;93.35;99762.34;5055433;28;20230;-79
2022/12/09 08:09:12;;;;;;;12.77;10.73;;;;;;;0.55;93.82;99752.97;5056105;28;20205;-79
2022/12/09 08:11:41;;;;;;;11.77;10.27;;;;;;;0.59;93.32;99744.47;5055836;28;20233;-77
2022/12/09 08:14:10;;;;;;;13.97;11.73;;;;;;;0.68;93.53;99742.84;5055303;28;20205;-78
2022/12/09 08:16:36;;;;;;;12.53;11.17;;;;;;;0.72;93.97;99740.28;5055022;28;20233;-78
2022/12/09 08:19:03;;;;;;;13.52;12.23;;;;;;;0.81;93.38;99730.94;5053832;28;20434;-78
2022/12/09 08:21:32;;;;;;;13.13;10.63;;;;;;;0.83;94.14;99744.66;5054007;28;20214;-79
2022/12/09 08:24:00;;;;;;;12.47;11.17;;;;;;;0.88;93.72;99738.72;5055145;28;20214;-80
2022/12/09 08:26:29;;;;;;;13.53;11.27;;;;;;;0.89;93.57;99744.72;5054152;28;20232;-80
2022/12/09 08:28:57;;;;;;;12.83;10.53;;;;;;;0.88;93.93;99743.03;5053571;28;20213;-79
2022/12/09 08:31:26;;;;;;;13.60;10.60;;;;;;;0.83;94.34;99742.97;5054621;28;20230;-79
2022/12/09 08:33:53;;;;;;;11.27;10.00;;;;;;;0.88;93.79;99741.31;5055555;28;20209;-81
2022/12/09 08:36:21;;;;;;;12.07;10.30;;;;;;;0.91;93.67;99740.47;5055408;28;20256;-81
2022/12/09 08:38:48;;;;;;;11.10;9.97;;;;;;;0.95;94.00;99737.94;5055740;28;20215;-80
2022/12/09 08:41:16;;;;;;;14.57;11.43;;;;;;;1.00;93.58;99732.84;5054885;28;20232;-81
2022/12/09 08:43:43;;;;;;;13.00;11.37;;;;;;;0.96;94.29;99729.38;5055518;28;20708;-80
2022/12/09 08:46:12;;;;;;;13.07;11.67;;;;;;;0.95;94.29;99725.09;5054900;28;20695;-79
2022/12/09 08:48:40;;;;;;;11.70;10.50;;;;;;;0.98;94.38;99722.53;5054704;28;20699;-78
2022/12/09 08:51:07;;;;;;;15.30;12.77;;;;;;;1.07;94.53;99715.75;5054018;28;20665;-80
2022/12/09 08:53:34;;;;;;;21.57;16.30;;;;;;;1.08;94.59;99710.63;5054271;28;20212;-80
2022/12/09 08:56:07;;;;;;;29.10;18.03;;;;;;;1.15;94.04;99712.41;5054519;28;20746;-80
2022/12/09 08:58:34;;;;;;;15.37;13.10;;;;;;;1.21;93.98;99713.28;5054494;28;20205;-79
2022/12/09 09:01:00;;;;;;;17.03;13.27;;;;;;;1.19;94.19;99719.28;5053729;28;20213;-80
2022/12/09 09:03:28;;;;;;;14.27;12.20;;;;;;;1.20;94.45;99715.00;5054599;28;20213;-79
2022/12/09 09:06:00;;;;;;;13.90;12.00;;;;;;;1.20;94.20;99720.16;5053694;28;20229;-80
2022/12/09 09:08:27;;;;;;;12.83;11.53;;;;;;;1.20;94.26;99715.00;5054052;28;20212;-79
2022/12/09 09:10:53;;;;;;;13.77;11.63;;;;;;;1.25;94.67;99713.34;5053637;28;20210;-79
2022/12/09 09:13:20;;;;;;;14.40;12.00;;;;;;;1.27;94.83;99713.31;5053427;28;20233;-80
2022/12/09 09:15:46;;;;;;;12.50;11.20;;;;;;;1.31;94.12;99718.53;5054202;28;20320;-80
2022/12/09 09:18:13;;;;;;;14.50;12.17;;;;;;;1.30;95.35;99713.34;5054088;28;20248;-79
2022/12/09 09:20:45;;;;;;;13.97;11.93;;;;;;;1.34;94.97;99702.25;5053573;28;20209;-79
2022/12/09 09:23:11;;;;;;;13.70;11.87;;;;;;;1.34;95.58;99691.97;5053503;28;20574;-80
2022/12/09 09:25:40;;;;;;;15.30;12.23;;;;;;;1.45;95.75;99685.19;5053713;28;20236;-79
2022/12/09 09:28:07;;;;;;;14.40;11.57;;;;;;;1.46;95.70;99686.03;5053783;28;20205;-79
2022/12/09 09:30:33;;;;;;;26.70;20.90;;;;;;;1.54;95.26;99702.38;5053366;28;20205;-80
2022/12/09 09:33:00;;;;;;;23.63;18.37;;;;;;;1.61;94.37;99718.72;5121634;23;20727;-82
2022/12/09 09:35:26;;;;;;;20.77;16.20;;;;;;;1.69;93.83;99740.19;5094469;28;20546;-80
2022/12/09 09:37:54;;;;;;;17.43;15.73;;;;;;;1.72;92.99;99768.50;5095141;28;20575;-82
2022/12/09 09:40:21;;;;;;;19.67;15.17;;;;;;;1.69;92.58;99789.06;5094457;28;20231;-79
2022/12/09 09:42:50;;;;;;;15.53;13.87;;;;;;;1.73;91.79;99804.53;5095122;28;20231;-81
2022/12/09 09:45:20;;;;;;;14.50;13.00;;;;;;;1.71;91.36;99811.38;5095345;28;20204;-82
2022/12/09 09:47:51;;;;;;;14.33;13.03;;;;;;;1.72;91.59;99820.78;5094630;28;20670;-80
2022/12/09 09:50:26;;;;;;;24.03;18.93;;;;;;;1.68;92.19;99825.91;5094300;28;20204;-82
2022/12/09 09:52:55;;;;;;;32.67;23.23;;;;;;;1.67;92.30;99812.19;5091414;28;20228;-81
2022/12/09 09:55:33;;;;;;;15.07;13.57;;;;;;;1.64;92.38;99824.19;5085808;28;20207;-80
2022/12/09 09:58:10;;;;;;;14.60;13.20;;;;;;;1.71;92.38;99821.66;5084627;28;20203;-81
2022/12/09 10:00:43;;;;;;;13.23;11.87;;;;;;;1.73;91.65;99824.25;5083228;28;20200;-80
2022/12/09 10:03:13;;;;;;;14.83;13.20;;;;;;;1.70;90.88;99842.22;5078933;28;20592;-81
2022/12/09 10:05:52;;;;;;;15.73;14.10;;;;;;;1.63;91.60;99832.75;5083703;28;20206;-81
2022/12/09 10:08:32;;;;;;;15.10;13.60;;;;;;;1.63;92.79;99807.88;5080910;28;20200;-81
2022/12/09 10:11:10;;;;;;;16.37;14.67;;;;;;;1.72;92.94;99789.91;5074538;28;20209;-81
2022/12/09 10:13:46;;;;;;;15.93;14.33;;;;;;;1.74;93.16;99777.94;5074925;28;20228;-81
2022/12/09 10:16:16;;;;;;;17.83;15.43;;;;;;;1.84;93.36;99758.25;5075633;28;20675;-80
2022/12/09 10:18:56;;;;;;;15.27;13.47;;;;;;;1.82;93.29;99766.84;5075151;28;20201;-80
2022/12/09 10:21:22;;;;;;;15.50;13.93;;;;;;;1.79;92.93;99770.25;5074625;28;20319;-80
2022/12/09 10:23:50;;;;;;;15.30;13.80;;;;;;;1.80;92.98;99771.97;5074543;28;20208;-79
2022/12/09 10:26:22;;;;;;;16.43;14.63;;;;;;;1.81;93.04;99763.41;5075197;28;20608;-80
2022/12/09 10:28:54;;;;;;;20.73;15.40;;;;;;;1.76;93.56;99772.78;5075194;28;20205;-80
2022/12/09 10:31:20;;;;;;;19.50;16.67;;;;;;;1.80;93.08;99764.25;5074979;28;20229;-81
2022/12/09 10:33:48;;;;;;;17.73;15.50;;;;;;;1.76;93.51;99749.66;5075606;28;20229;-80
2022/12/09 10:36:23;;;;;;;15.90;14.27;;;;;;;1.79;93.32;99740.22;5075326;28;20205;-80
2022/12/09 10:38:51;;;;;;;15.13;13.63;;;;;;;1.72;94.13;99742.75;5080538;28;20282;-79
2022/12/09 10:44:21;;;;;;;15.03;13.23;;;;;;;1.76;94.07;99731.63;5084039;28;20225;-79
2022/12/09 10:46:48;;;;;;;15.50;13.87;;;;;;;1.75;93.47;99735.06;5085699;28;20201;-79
2022/12/09 10:49:20;;;;;;;14.40;12.47;;;;;;;1.75;93.55;99729.94;5077970;28;20215;-79
2022/12/09 10:51:49;;;;;;;14.30;12.90;;;;;;;1.69;94.48;99724.75;5079473;28;20223;-79
2022/12/09 10:54:22;;;;;;;15.67;13.40;;;;;;;1.67;95.34;99699.00;5088283;28;20283;-80
2022/12/09 10:57:23;;;;;;;14.33;12.83;;;;;;;1.81;96.43;99668.22;5087392;28;20189;-79
2022/12/09 10:59:59;;;;;;;16.30;13.70;;;;;;;1.92;96.37;99647.66;5089353;28;20197;-80
2022/12/09 11:02:28;;;;;;;14.43;12.77;;;;;;;1.83;96.18;99647.63;5080522;28;20228;-82
2022/12/09 11:04:55;;;;;;;14.23;12.93;;;;;;;1.97;96.13;99651.09;5077730;28;20208;-80
2022/12/09 11:07:24;;;;;;;13.70;12.30;;;;;;;2.00;95.99;99651.09;5078577;28;20588;-81
2022/12/09 11:10:04;;;;;;;14.70;13.20;;;;;;;2.11;95.63;99653.72;5077907;28;20213;-79
2022/12/09 11:12:35;;;;;;;15.27;13.00;;;;;;;2.12;95.01;99670.88;5077849;28;20714;-81
2022/12/09 11:15:05;;;;;;;13.53;12.13;;;;;;;2.20;94.70;99676.94;5077644;28;20292;-81
2022/12/09 11:17:34;;;;;;;15.37;13.77;;;;;;;2.23;94.59;99688.94;5078181;28;20209;-80
2022/12/09 11:20:14;;;;;;;16.17;14.37;;;;;;;2.17;94.40;99698.34;5077954;28;20198;-79
2022/12/09 11:22:42;;;;;;;15.27;12.37;;;;;;;2.36;93.83;99706.16;5077362;28;20221;-80
2022/12/09 11:25:21;;;;;;;13.90;12.33;;;;;;;2.47;93.04;99714.75;5077534;28;20710;-81
2022/12/09 11:27:52;;;;;;;13.97;12.60;;;;;;;2.48;93.13;99734.50;5077560;28;20207;-82
2022/12/09 11:30:20;;;;;;;13.80;12.40;;;;;;;2.45;93.37;99736.22;5077041;28;20208;-80
2022/12/09 11:32:57;;;;;;;14.70;13.20;;;;;;;2.54;92.73;99743.97;5077024;28;20241;-80
2022/12/09 11:35:29;;;;;;;17.67;15.20;;;;;;;2.56;92.30;99749.97;5077726;28;20697;-81